createdAt,value
2023-01-26T05:01:34.997Z,65.60
2023-01-26T05:04:07.159Z,69.17
2023-01-26T05:06:39.217Z,63.53
2023-01-26T05:09:11.335Z,65.60
2023-01-26T05:11:43.335Z,61.70
2023-01-26T05:16:55.907Z,53.57
2023-01-26T05:19:27.899Z,57.60
2023-01-26T05:21:59.899Z,57.10
2023-01-26T05:24:31.876Z,65.03
2023-01-26T05:27:03.911Z,56.80
2023-01-26T05:29:35.897Z,54.13
2023-01-26T05:32:09.246Z,59.33
2023-01-26T05:34:41.253Z,59.07
2023-01-26T05:37:15.004Z,63.93
2023-01-26T05:39:47.038Z,64.67
2023-01-26T05:42:18.684Z,55.80
2023-01-26T05:44:50.294Z,58.33
2023-01-26T05:47:23.505Z,62.10
2023-01-26T05:49:55.132Z,60.03
2023-01-26T05:52:26.748Z,62.60
2023-01-26T05:54:58.371Z,64.10
2023-01-26T05:57:30.084Z,66.23
2023-01-26T06:00:01.990Z,63.27
2023-01-26T06:02:35.116Z,64.77
2023-01-26T06:05:08.181Z,66.53
2023-01-26T06:07:39.822Z,61.03
2023-01-26T06:10:12.028Z,73.10
2023-01-26T06:12:43.845Z,66.33
2023-01-26T06:15:15.473Z,72.77
2023-01-26T06:17:48.448Z,67.27
2023-01-26T06:20:20.090Z,69.57
2023-01-26T06:22:51.696Z,69.63
2023-01-26T06:25:23.330Z,61.43
2023-01-26T06:27:57.246Z,67.67
2023-01-26T06:30:29.018Z,67.10
2023-01-26T06:33:02.152Z,62.43
2023-01-26T06:35:33.986Z,72.73
2023-01-26T06:38:05.698Z,71.30
2023-01-26T06:40:37.360Z,69.37
2023-01-26T06:43:08.974Z,65.33
2023-01-26T06:45:40.625Z,67.53
2023-01-26T06:48:13.559Z,75.53
2023-01-26T06:50:45.204Z,69.67
2023-01-26T06:53:25.847Z,73.43
2023-01-26T06:55:57.488Z,76.47
2023-01-26T06:58:29.118Z,72.77
2023-01-26T07:01:00.808Z,76.17
2023-01-26T07:03:33.837Z,79.60
2023-01-26T07:06:05.867Z,79.07
2023-01-26T07:08:37.520Z,74.53
2023-01-26T07:11:09.436Z,69.67
2023-01-26T07:13:41.041Z,77.60
2023-01-26T07:16:13.672Z,71.57
2023-01-26T07:18:46.692Z,73.73
2023-01-26T07:21:18.875Z,67.70
2023-01-26T07:23:50.681Z,65.87
2023-01-26T07:26:22.354Z,66.17
2023-01-26T07:28:54.046Z,67.43
2023-01-26T07:31:25.787Z,56.13
2023-01-26T07:33:58.773Z,52.10
2023-01-26T07:36:30.444Z,62.97
2023-01-26T07:39:02.043Z,62.73
2023-01-26T07:41:33.699Z,64.33
2023-01-26T07:44:08.877Z,63.73
2023-01-26T07:46:40.534Z,66.60
2023-01-26T07:49:13.542Z,55.43
2023-01-26T07:51:45.171Z,55.40
2023-01-26T07:54:16.827Z,57.30
2023-01-26T07:56:51.434Z,55.80
2023-01-26T07:59:23.405Z,57.90
2023-01-26T08:01:55.178Z,53.07
2023-01-26T08:04:28.198Z,54.03
2023-01-26T08:07:00.194Z,63.90
2023-01-26T08:09:31.923Z,64.50
2023-01-26T08:12:04.033Z,64.13
2023-01-26T08:14:46.534Z,63.03
2023-01-26T08:17:18.897Z,65.03
2023-01-26T08:19:51.877Z,55.93
2023-01-26T08:22:23.562Z,62.33
2023-01-26T08:24:55.216Z,62.57
2023-01-26T08:27:26.839Z,51.57
2023-01-26T08:29:58.472Z,55.77
2023-01-26T08:32:30.238Z,54.30
2023-01-26T08:35:03.283Z,59.80
2023-01-26T08:37:34.969Z,60.63
2023-01-26T08:40:07.975Z,57.27
2023-01-26T08:42:39.604Z,57.63
2023-01-26T08:45:11.497Z,52.80
2023-01-26T08:47:43.143Z,56.73
2023-01-26T08:50:16.280Z,57.10
2023-01-26T08:52:47.935Z,50.50
2023-01-26T08:55:19.563Z,54.73
2023-01-26T08:57:54.059Z,56.13
2023-01-26T09:00:25.833Z,54.37
2023-01-26T09:03:00.769Z,60.30
2023-01-26T09:05:34.777Z,56.13
2023-01-26T09:08:07.618Z,53.00
2023-01-26T09:10:39.255Z,53.80
2023-01-26T09:13:10.865Z,50.07
2023-01-26T09:15:42.498Z,55.53
2023-01-26T09:18:14.112Z,58.97
2023-01-26T09:20:47.159Z,59.37
2023-01-26T09:23:18.832Z,58.67
2023-01-26T09:25:52.917Z,62.83
2023-01-26T09:28:24.549Z,60.30
2023-01-26T09:30:56.333Z,57.77
2023-01-26T09:33:28.044Z,55.60
2023-01-26T09:36:04.420Z,58.93
2023-01-26T09:38:36.410Z,59.60
2023-01-26T09:41:17.746Z,57.17
2023-01-26T09:43:50.723Z,69.10
2023-01-26T09:46:23.542Z,59.53
2023-01-26T09:49:02.235Z,68.20
2023-01-26T09:51:36.357Z,57.07
2023-01-26T09:54:13.820Z,67.67
2023-01-26T09:56:45.505Z,60.00
2023-01-26T09:59:22.592Z,64.17
2023-01-26T10:01:56.128Z,64.07
2023-01-26T10:04:29.970Z,66.83
2023-01-26T10:07:04.465Z,60.70
2023-01-26T10:09:37.146Z,67.47
2023-01-26T10:12:11.861Z,63.67
2023-01-26T10:14:45.036Z,69.07
2023-01-26T10:17:18.334Z,71.23
2023-01-26T10:19:50.817Z,67.90
2023-01-26T10:22:26.348Z,68.27
2023-01-26T10:24:58.271Z,77.00
2023-01-26T10:27:29.910Z,68.80
2023-01-26T10:30:01.584Z,66.03
2023-01-26T10:32:33.509Z,73.27
2023-01-26T10:35:06.021Z,68.97
2023-01-26T10:37:39.062Z,73.53
2023-01-26T10:40:11.169Z,90.40
2023-01-26T10:42:42.809Z,76.00
2023-01-26T10:45:24.587Z,69.07
2023-01-26T10:48:03.685Z,83.27
2023-01-26T10:50:35.675Z,77.93
2023-01-26T10:53:14.870Z,74.93
2023-01-26T10:55:58.904Z,78.47
2023-01-26T10:58:44.036Z,81.10
2023-01-26T11:01:16.405Z,80.30
2023-01-26T11:04:01.292Z,69.07
2023-01-26T11:06:33.091Z,74.57
2023-01-26T11:09:17.949Z,76.33
2023-01-26T11:11:59.965Z,72.67
2023-01-26T11:14:32.153Z,73.93
2023-01-26T11:17:09.970Z,71.53
2023-01-26T11:19:52.777Z,69.73
2023-01-26T11:22:26.983Z,81.30
2023-01-26T11:25:03.850Z,85.07
2023-01-26T11:27:40.120Z,76.27
2023-01-26T11:30:28.975Z,73.17
2023-01-26T11:33:03.139Z,70.40
2023-01-26T11:35:39.578Z,74.73
2023-01-26T11:38:25.528Z,70.30
2023-01-26T11:41:02.635Z,64.90
2023-01-26T11:43:58.531Z,68.40
2023-01-26T11:46:40.856Z,72.43
2023-01-26T11:49:20.200Z,69.77
2023-01-26T11:52:00.253Z,73.83
2023-01-26T11:54:50.627Z,68.50
2023-01-26T11:57:25.418Z,60.40
2023-01-26T11:59:58.410Z,54.53
2023-01-26T12:02:31.591Z,60.90
2023-01-26T12:05:05.890Z,61.77
2023-01-26T12:07:43.017Z,64.63
2023-01-26T12:10:15.567Z,74.93
2023-01-26T12:12:49.547Z,71.20
2023-01-26T12:15:23.980Z,78.70
2023-01-26T12:17:58.949Z,85.43
2023-01-26T12:20:34.536Z,84.20
2023-01-26T12:23:10.534Z,87.30
2023-01-26T12:25:44.815Z,78.83
2023-01-26T12:28:19.877Z,84.03
2023-01-26T12:30:55.616Z,84.17
2023-01-26T12:33:27.285Z,83.57
2023-01-26T12:36:16.244Z,79.23
2023-01-26T12:38:55.467Z,81.33
2023-01-26T12:41:31.318Z,83.17
2023-01-26T12:44:10.468Z,71.73
2023-01-26T12:46:43.817Z,70.53
2023-01-26T12:49:17.161Z,76.70
2023-01-26T12:51:50.693Z,68.37
2023-01-26T12:54:23.728Z,68.67
2023-01-26T12:56:56.395Z,61.27
2023-01-26T12:59:48.030Z,63.33
2023-01-26T13:02:25.706Z,57.17
2023-01-26T13:04:57.694Z,63.83
2023-01-26T13:07:31.608Z,50.53
2023-01-26T13:10:27.897Z,53.20
2023-01-26T13:13:00.108Z,45.77
2023-01-26T13:15:33.209Z,40.50
2023-01-26T13:18:04.915Z,40.83
2023-01-26T13:20:54.536Z,46.80
2023-01-26T13:23:52.411Z,40.83
2023-01-26T13:26:40.088Z,44.93
2023-01-26T13:29:29.114Z,42.60
2023-01-26T13:32:18.086Z,39.67
2023-01-26T13:34:51.940Z,42.47
2023-01-26T13:37:24.706Z,39.20
2023-01-26T13:39:58.810Z,35.70
2023-01-26T13:42:32.886Z,40.90
2023-01-26T13:45:06.252Z,38.13
2023-01-26T13:47:40.931Z,39.47
2023-01-26T13:50:22.622Z,42.40
2023-01-26T13:52:54.241Z,36.40
2023-01-26T13:55:26.365Z,36.27
2023-01-26T13:58:10.685Z,34.40
2023-01-26T14:00:42.379Z,34.93
2023-01-26T14:03:21.331Z,33.53
2023-01-26T14:05:53.849Z,35.37
2023-01-26T14:08:25.510Z,33.90
2023-01-26T14:10:57.233Z,36.87
2023-01-26T14:13:31.161Z,33.97
2023-01-26T14:16:07.570Z,35.17
2023-01-26T14:18:40.572Z,34.00
2023-01-26T14:21:16.531Z,30.57
2023-01-26T14:23:54.386Z,30.07
2023-01-26T14:26:30.046Z,38.43
2023-01-26T14:29:01.654Z,29.27
2023-01-26T14:31:33.396Z,32.70
2023-01-26T14:34:08.960Z,32.33
2023-01-26T14:36:40.603Z,29.27
2023-01-26T14:39:16.260Z,31.20
2023-01-26T14:41:47.940Z,25.03
2023-01-26T14:44:19.557Z,29.43
2023-01-26T14:46:54.169Z,23.07
2023-01-26T14:49:31.439Z,24.77
2023-01-26T14:52:03.237Z,21.80
2023-01-26T14:54:34.888Z,23.33
2023-01-26T14:57:08.666Z,27.53
2023-01-26T14:59:41.081Z,21.60
2023-01-26T15:02:16.720Z,20.57
2023-01-26T15:04:52.056Z,18.57
2023-01-26T15:07:32.268Z,17.83
2023-01-26T15:10:21.872Z,18.07
2023-01-26T15:12:58.592Z,18.47
2023-01-26T15:15:31.253Z,16.37
2023-01-26T15:18:16.637Z,18.33
2023-01-26T15:20:55.783Z,20.87
2023-01-26T15:23:28.553Z,15.90
2023-01-26T15:26:07.114Z,17.80
2023-01-26T15:28:38.798Z,19.23
2023-01-26T15:31:18.699Z,21.47
2023-01-26T15:33:50.980Z,17.07
2023-01-26T15:36:28.765Z,19.27
2023-01-26T15:39:02.399Z,22.23
2023-01-26T15:41:34.038Z,21.37
2023-01-26T15:44:05.707Z,24.30
2023-01-26T15:46:37.370Z,26.60
2023-01-26T15:49:09.031Z,26.70
2023-01-26T15:51:41.979Z,24.33
2023-01-26T15:54:13.623Z,33.63
2023-01-26T15:56:45.277Z,32.50
2023-01-26T15:59:16.927Z,30.87
2023-01-26T16:01:48.618Z,29.23
2023-01-26T16:04:20.256Z,35.57
2023-01-26T16:06:53.225Z,36.40
2023-01-26T16:09:24.838Z,41.83
2023-01-26T16:11:56.464Z,38.00
2023-01-26T16:14:28.066Z,44.00
2023-01-26T16:16:59.691Z,46.93
2023-01-26T16:19:35.535Z,42.17
2023-01-26T16:22:10.316Z,44.67
2023-01-26T16:24:41.933Z,45.87
2023-01-26T16:27:13.575Z,51.17
2023-01-26T16:29:45.300Z,53.97
2023-01-26T16:32:22.151Z,52.17
2023-01-26T16:34:53.769Z,53.37
2023-01-26T16:37:26.765Z,57.93
2023-01-26T16:39:58.392Z,62.73
2023-01-26T16:42:30.027Z,59.87
2023-01-26T16:45:01.644Z,57.70
2023-01-26T16:47:33.338Z,67.57
2023-01-26T16:50:05.350Z,63.33
2023-01-26T16:52:39.738Z,64.77
2023-01-26T16:55:12.123Z,65.57
2023-01-26T16:57:44.934Z,76.20
2023-01-26T17:00:17.706Z,80.27
2023-01-26T17:02:51.435Z,82.00
2023-01-26T17:05:23.500Z,87.57
2023-01-26T17:07:57.099Z,95.30
2023-01-26T17:10:29.787Z,82.47
2023-01-26T17:13:02.554Z,110.83
2023-01-26T17:15:38.501Z,113.07
2023-01-26T17:18:10.714Z,94.23
2023-01-26T17:20:42.377Z,91.23
2023-01-26T17:23:15.349Z,107.33
2023-01-26T17:25:47.003Z,107.87
2023-01-26T17:28:18.624Z,108.03
2023-01-26T17:30:50.302Z,118.87
2023-01-26T17:33:21.944Z,114.70
2023-01-26T17:35:59.716Z,125.23
2023-01-26T17:38:32.750Z,116.97
2023-01-26T17:41:04.657Z,116.80
2023-01-26T17:43:36.318Z,109.80
2023-01-26T17:46:09.680Z,126.80
2023-01-26T17:48:42.988Z,131.73
2023-01-26T17:51:17.003Z,111.33
2023-01-26T17:53:50.020Z,123.43
2023-01-26T17:56:21.868Z,144.33
2023-01-26T17:58:54.216Z,127.93
2023-01-26T18:01:25.906Z,95.80
2023-01-26T18:03:57.603Z,131.80
2023-01-26T18:06:29.299Z,132.03
2023-01-26T18:09:02.244Z,138.03
2023-01-26T18:11:33.896Z,121.90
2023-01-26T18:14:05.542Z,137.73
2023-01-26T18:16:37.205Z,108.20
2023-01-26T18:19:08.881Z,131.97
2023-01-26T18:21:40.568Z,134.70
2023-01-26T18:24:13.541Z,144.80
2023-01-26T18:26:45.305Z,138.30
2023-01-26T18:29:16.938Z,120.83
2023-01-26T18:31:48.643Z,121.73
2023-01-26T18:34:20.264Z,124.37
2023-01-26T18:36:51.900Z,130.43
2023-01-26T18:39:24.868Z,114.40
2023-01-26T18:41:56.645Z,134.67
2023-01-26T18:44:28.247Z,120.30
2023-01-26T18:46:59.900Z,132.23
2023-01-26T18:49:31.526Z,102.10
2023-01-26T18:52:03.160Z,150.63
2023-01-26T18:54:36.141Z,136.50
2023-01-26T18:57:07.797Z,139.53
2023-01-26T18:59:39.437Z,160.07
2023-01-26T19:02:11.222Z,156.83
2023-01-26T19:04:42.838Z,144.17
2023-01-26T19:07:14.497Z,178.93
2023-01-26T19:09:47.528Z,118.80
2023-01-26T19:12:19.146Z,141.13
2023-01-26T19:14:51.205Z,101.40
2023-01-26T19:17:22.847Z,141.83
2023-01-26T19:19:54.470Z,151.90
2023-01-26T19:22:26.106Z,178.20
2023-01-26T19:24:59.083Z,124.70
2023-01-26T19:27:31.078Z,123.20
2023-01-26T19:30:02.766Z,151.87
2023-01-26T19:32:34.443Z,134.40
2023-01-26T19:35:06.818Z,164.40
2023-01-26T19:37:38.467Z,131.20
2023-01-26T19:40:13.316Z,118.57
2023-01-26T19:42:44.957Z,118.13
2023-01-26T19:45:16.620Z,164.20
2023-01-26T19:47:48.254Z,104.53
2023-01-26T19:50:19.846Z,134.20
2023-01-26T19:52:51.493Z,134.93
2023-01-26T19:55:24.455Z,120.23
2023-01-26T19:57:56.147Z,124.57
2023-01-26T20:00:27.743Z,115.43
2023-01-26T20:02:59.424Z,153.43
2023-01-26T20:05:31.079Z,120.03
2023-01-26T20:08:02.744Z,117.17
2023-01-26T20:10:37.854Z,148.93
2023-01-26T20:13:09.461Z,123.73
2023-01-26T20:15:41.098Z,140.17
2023-01-26T20:18:12.728Z,135.97
2023-01-26T20:20:49.049Z,132.60
2023-01-26T20:23:20.940Z,121.53
2023-01-26T20:26:02.469Z,132.77
2023-01-26T20:28:34.133Z,123.10
2023-01-26T20:31:07.068Z,103.70
2023-01-26T20:33:38.959Z,92.63
2023-01-26T20:36:11.763Z,101.97
2023-01-26T20:38:43.393Z,149.23
2023-01-26T20:41:17.165Z,133.83
2023-01-26T20:43:59.352Z,130.70
2023-01-26T20:46:33.677Z,127.10
2023-01-26T20:49:05.665Z,122.87
2023-01-26T20:51:37.514Z,111.93
2023-01-26T20:54:11.438Z,118.73
2023-01-26T20:56:45.688Z,135.63
2023-01-26T20:59:19.882Z,125.50
2023-01-26T21:01:51.555Z,110.80
2023-01-26T21:04:24.566Z,156.50
2023-01-26T21:06:56.306Z,117.17
2023-01-26T21:09:29.318Z,127.47
2023-01-26T21:12:03.831Z,88.50
2023-01-26T21:14:38.160Z,108.50
2023-01-26T21:17:11.199Z,109.23
2023-01-26T21:19:44.004Z,124.17
2023-01-26T21:22:17.131Z,114.20
2023-01-26T21:24:50.303Z,122.53
2023-01-26T21:27:23.310Z,130.27
2023-01-26T21:29:54.949Z,131.03
2023-01-26T21:32:27.712Z,125.97
2023-01-26T21:34:59.329Z,122.93
2023-01-26T21:37:30.948Z,130.97
2023-01-26T21:40:02.643Z,122.57
2023-01-26T21:42:35.642Z,142.63
2023-01-26T21:45:08.462Z,113.20
2023-01-26T21:47:40.090Z,130.13
2023-01-26T21:50:12.082Z,125.57
2023-01-26T21:52:43.859Z,142.60
2023-01-26T21:55:16.230Z,124.17
2023-01-26T21:57:49.564Z,131.27
2023-01-26T22:00:21.844Z,117.03
2023-01-26T22:02:53.840Z,107.07
2023-01-26T22:05:25.825Z,119.90
2023-01-26T22:07:57.851Z,113.67
2023-01-26T22:10:29.839Z,117.10
2023-01-26T22:13:03.172Z,105.93
2023-01-26T22:15:35.162Z,115.97
2023-01-26T22:18:09.188Z,110.53
2023-01-26T22:20:41.202Z,123.10
2023-01-26T22:23:13.280Z,103.63
2023-01-26T22:25:47.375Z,102.77
2023-01-26T22:28:20.793Z,124.80
2023-01-26T22:30:56.641Z,98.57
2023-01-26T22:33:29.748Z,125.23
2023-01-26T22:36:01.906Z,106.37
2023-01-26T22:38:36.590Z,89.57
2023-01-26T22:41:13.081Z,98.33
2023-01-26T22:43:48.622Z,100.30
2023-01-26T22:46:21.027Z,97.17
2023-01-26T22:48:52.653Z,106.90
2023-01-26T22:51:24.985Z,98.97
2023-01-26T22:53:56.984Z,105.30
2023-01-26T22:56:28.620Z,94.27
2023-01-26T22:59:04.045Z,89.40
